createdAt,value
2017-12-08T00:01:53.319Z,0
2017-12-08T00:11:53.587Z,0
2017-12-08T00:21:53.302Z,0
2017-12-08T00:31:53.378Z,0
2017-12-08T00:41:53.352Z,0
2017-12-08T00:51:53.305Z,0
2017-12-08T01:01:53.355Z,0
2017-12-08T01:11:53.292Z,0
2017-12-08T01:21:53.390Z,0
2017-12-08T01:31:53.345Z,0
2017-12-08T01:41:53.413Z,0
2017-12-08T01:51:53.357Z,0
2017-12-08T02:01:53.445Z,0
2017-12-08T02:11:53.395Z,0
2017-12-08T02:21:53.665Z,0
2017-12-08T02:31:53.441Z,0
2017-12-08T02:41:53.384Z,0
2017-12-08T02:51:53.738Z,0
2017-12-08T03:01:53.408Z,0
2017-12-08T03:11:53.464Z,0
2017-12-08T03:21:53.687Z,0
2017-12-08T03:31:53.503Z,0
2017-12-08T03:41:53.427Z,0
2017-12-08T03:51:53.558Z,0
2017-12-08T04:01:53.474Z,0
2017-12-08T04:11:53.423Z,0
2017-12-08T04:21:53.549Z,0
2017-12-08T04:31:53.486Z,0
2017-12-08T04:41:53.527Z,0
2017-12-08T04:51:53.459Z,0
2017-12-08T05:01:53.561Z,0
2017-12-08T05:11:54.399Z,0
2017-12-08T05:21:53.597Z,0
2017-12-08T05:31:53.554Z,0
2017-12-08T05:41:53.603Z,0
2017-12-08T05:51:53.584Z,0
2017-12-08T06:01:53.519Z,0
2017-12-08T06:11:53.562Z,0
2017-12-08T06:21:53.562Z,0
2017-12-08T06:31:53.685Z,0
2017-12-08T06:41:53.742Z,0
2017-12-08T06:51:53.703Z,0
2017-12-08T07:01:53.995Z,0
2017-12-08T07:11:53.640Z,0
2017-12-08T07:21:53.665Z,0
2017-12-08T07:31:53.937Z,5
2017-12-08T07:41:53.747Z,10
2017-12-08T07:51:53.632Z,20
2017-12-08T08:01:53.732Z,20
2017-12-08T08:11:53.611Z,20
2017-12-08T08:21:53.708Z,40
2017-12-08T08:31:53.748Z,75
2017-12-08T08:41:53.748Z,35
2017-12-08T08:51:54.913Z,50
2017-12-08T09:01:53.844Z,40
2017-12-08T09:11:54.901Z,40
2017-12-08T09:21:53.735Z,45
2017-12-08T09:31:53.715Z,15
2017-12-08T09:41:53.743Z,25
2017-12-08T09:51:53.765Z,30
2017-12-08T10:01:53.779Z,45
2017-12-08T10:11:53.738Z,35
2017-12-08T10:21:53.731Z,25
2017-12-08T10:31:53.799Z,15
2017-12-08T10:41:54.052Z,25
2017-12-08T10:51:53.876Z,40
2017-12-08T11:01:54.004Z,50
2017-12-08T11:22:39.371Z,35
2017-12-08T11:23:19.946Z,30
2017-12-08T11:33:19.896Z,40
2017-12-08T11:43:20.155Z,70
2017-12-08T11:53:20.018Z,55
2017-12-08T12:03:19.975Z,90
2017-12-08T12:13:19.949Z,65
2017-12-08T12:23:20.061Z,35
2017-12-08T12:33:19.969Z,40
2017-12-08T12:43:20.237Z,15
2017-12-08T12:53:20.016Z,60
2017-12-08T13:03:19.972Z,75
2017-12-08T13:13:20.042Z,20
2017-12-08T13:23:20.009Z,25
2017-12-08T13:33:20.072Z,20
2017-12-08T13:43:20.031Z,55
2017-12-08T13:53:20.086Z,50
2017-12-08T14:03:20.944Z,35
2017-12-08T14:13:20.091Z,30
2017-12-08T14:23:20.153Z,25
2017-12-08T14:33:20.046Z,20
2017-12-08T14:43:20.105Z,15
2017-12-08T14:53:20.060Z,10
2017-12-08T15:03:20.132Z,5
2017-12-08T15:13:26.544Z,0
2017-12-08T15:23:20.181Z,0
2017-12-08T15:33:20.266Z,0
2017-12-08T15:43:20.126Z,0
2017-12-08T15:53:20.159Z,0
2017-12-08T16:03:20.251Z,0
2017-12-08T16:13:20.590Z,0
2017-12-08T16:23:20.242Z,0
2017-12-08T16:33:20.145Z,0
2017-12-08T16:43:20.274Z,0
2017-12-08T16:53:20.183Z,0
2017-12-08T17:03:20.261Z,0
2017-12-08T17:13:20.302Z,0
2017-12-08T17:23:20.201Z,0
2017-12-08T17:33:20.354Z,0
2017-12-08T17:43:20.281Z,0
2017-12-08T17:53:30.634Z,0
2017-12-08T18:03:20.443Z,0
2017-12-08T18:13:20.443Z,0
2017-12-08T18:23:20.584Z,0
2017-12-08T18:33:20.474Z,0
2017-12-08T18:43:20.644Z,0
2017-12-08T18:53:42.799Z,0
2017-12-08T19:03:20.475Z,0
2017-12-08T19:13:20.687Z,0
2017-12-08T19:23:20.687Z,0
2017-12-08T19:33:24.670Z,0
2017-12-08T19:43:20.484Z,0
2017-12-08T19:53:20.400Z,0
2017-12-08T20:04:13.621Z,0
2017-12-08T20:13:28.478Z,0
2017-12-08T20:23:20.959Z,0
2017-12-08T20:33:20.474Z,0
2017-12-08T20:43:20.544Z,0
2017-12-08T20:53:20.597Z,0
2017-12-08T21:03:21.130Z,0
2017-12-08T21:13:20.766Z,0
2017-12-08T21:23:21.103Z,0
2017-12-08T21:33:21.106Z,0
2017-12-08T21:43:21.137Z,0
2017-12-08T21:53:21.515Z,0
2017-12-08T22:03:20.615Z,0
2017-12-08T22:13:20.635Z,0
2017-12-08T22:23:20.815Z,0
2017-12-08T22:33:20.696Z,0
2017-12-08T22:43:20.702Z,0
2017-12-08T22:53:20.581Z,0
2017-12-08T23:03:20.510Z,0
2017-12-08T23:13:20.470Z,0
2017-12-08T23:23:20.534Z,0
2017-12-08T23:33:20.531Z,0
2017-12-08T23:43:20.641Z,0
2017-12-08T23:53:21.052Z,0
